Time;durP1;ratioP1;P1;durP2;ratioP2;P2;SDS_P1;SDS_P2;PMS_P1;PMS_P2;Temp;Humidity;BMP_temperature;BMP_pressure;BME280_temperature;BME280_humidity;BME280_pressure;Samples;Min_cycle;Max_cycle;Signal;HPM_P1;HPM_P2
2023/12/29 00:01:37;;;;;;;3.65;0.70;;;;;;;;;;5024418;28;20089;-80
2023/12/29 00:04:04;;;;;;;3.97;1.00;;;;;;;;;;5038952;28;20132;-80
2023/12/29 00:06:30;;;;;;;2.20;1.13;;;;;;;;;;5040683;28;20045;-81
2023/12/29 00:08:56;;;;;;;4.10;1.20;;;;;;;;;;5037275;28;20034;-81
2023/12/29 00:11:22;;;;;;;2.10;0.95;;;;;;;;;;5035330;28;20044;-80
2023/12/29 00:13:49;;;;;;;5.70;1.33;;;;;;;;;;5040176;28;20049;-80
2023/12/29 00:16:15;;;;;;;3.83;1.25;;;;;;;;;;5058272;28;20137;-80
2023/12/29 00:18:41;;;;;;;2.80;1.00;;;;;;;;;;5035727;28;20051;-80
2023/12/29 00:21:07;;;;;;;6.68;1.40;;;;;;;;;;5018035;28;20072;-81
2023/12/29 00:23:33;;;;;;;7.25;1.77;;;;;;;;;;5029388;28;20034;-80
2023/12/29 00:25:59;;;;;;;5.50;1.65;;;;;;;;;;5007438;28;20037;-80
2023/12/29 00:28:25;;;;;;;4.63;1.00;;;;;;;;;;5027176;28;20042;-80
2023/12/29 00:30:51;;;;;;;5.57;1.40;;;;;;;;;;5013199;28;20037;-81
2023/12/29 00:33:17;;;;;;;2.78;1.50;;;;;;;;;;5016795;28;20048;-81
2023/12/29 00:35:43;;;;;;;5.78;1.10;;;;;;;;;;5032203;28;20038;-82
2023/12/29 00:38:09;;;;;;;3.95;0.85;;;;;;;;;;5032943;28;20072;-80
2023/12/29 00:40:35;;;;;;;4.00;2.17;;;;;;;;;;5032893;28;20562;-81
2023/12/29 00:43:02;;;;;;;2.83;1.00;;;;;;;;;;5039889;28;20033;-80
2023/12/29 00:45:32;;;;;;;3.90;1.15;;;;;;;;;;5032660;28;20046;-80
2023/12/29 00:47:59;;;;;;;6.97;1.60;;;;;;;;;;4998439;28;20037;-81
2023/12/29 00:50:25;;;;;;;4.22;1.50;;;;;;;;;;5032431;28;20037;-81
2023/12/29 00:52:51;;;;;;;7.13;1.65;;;;;;;;;;5031666;28;20523;-80
2023/12/29 00:55:17;;;;;;;6.03;1.63;;;;;;;;;;5031592;28;20041;-81
2023/12/29 00:57:52;;;;;;;0.57;0.52;;;;;;;;;;5017232;28;20053;-81
2023/12/29 01:00:18;;;;;;;3.58;1.08;;;;;;;;;;5020007;28;20396;-81
2023/12/29 01:02:44;;;;;;;4.03;1.30;;;;;;;;;;5037211;28;20041;-81
2023/12/29 01:05:20;;;;;;;14.30;2.03;;;;;;;;;;5035761;28;20091;-81
2023/12/29 01:07:46;;;;;;;5.07;1.20;;;;;;;;;;5037896;28;20496;-80
2023/12/29 01:10:12;;;;;;;4.07;1.77;;;;;;;;;;5030061;28;20126;-81
2023/12/29 01:12:38;;;;;;;3.53;1.58;;;;;;;;;;5035351;28;20124;-81
2023/12/29 01:15:04;;;;;;;7.40;1.70;;;;;;;;;;5020259;28;20076;-80
2023/12/29 01:17:30;;;;;;;3.90;1.35;;;;;;;;;;5020263;28;20099;-80
2023/12/29 01:19:56;;;;;;;6.20;2.00;;;;;;;;;;5035963;28;20041;-80
2023/12/29 01:22:22;;;;;;;3.53;1.48;;;;;;;;;;5039996;28;20115;-81
2023/12/29 01:24:48;;;;;;;4.00;0.82;;;;;;;;;;5049099;28;20033;-80
2023/12/29 01:27:14;;;;;;;6.85;2.00;;;;;;;;;;5055116;28;20041;-80
2023/12/29 01:29:40;;;;;;;7.43;1.98;;;;;;;;;;5038112;28;20048;-80
2023/12/29 01:32:07;;;;;;;5.10;0.80;;;;;;;;;;5037801;28;20049;-80
2023/12/29 01:34:34;;;;;;;6.90;1.98;;;;;;;;;;5037526;28;20120;-81
2023/12/29 01:37:00;;;;;;;7.72;2.38;;;;;;;;;;5040279;28;20046;-81
2023/12/29 01:39:26;;;;;;;3.70;1.75;;;;;;;;;;5040322;28;20415;-80
2023/12/29 01:41:52;;;;;;;5.05;1.40;;;;;;;;;;5023186;28;20055;-81
2023/12/29 01:44:22;;;;;;;2.05;0.98;;;;;;;;;;5039829;28;20099;-81
2023/12/29 01:46:50;;;;;;;7.70;2.95;;;;;;;;;;5014716;28;20076;-80
2023/12/29 01:49:19;;;;;;;9.00;2.25;;;;;;;;;;5039462;28;20049;-80
2023/12/29 01:51:45;;;;;;;1.98;1.15;;;;;;;;;;5044171;28;20033;-80
2023/12/29 01:54:12;;;;;;;6.20;1.55;;;;;;;;;;5036340;28;20543;-81
2023/12/29 01:56:39;;;;;;;10.98;2.35;;;;;;;;;;5032790;28;20053;-81
2023/12/29 01:59:05;;;;;;;4.57;1.45;;;;;;;;;;5030433;28;20049;-81
2023/12/29 02:01:31;;;;;;;4.15;0.82;;;;;;;;;;5038112;28;20038;-81
2023/12/29 02:03:57;;;;;;;3.83;1.27;;;;;;;;;;5037652;28;20107;-80
2023/12/29 02:06:24;;;;;;;1.85;1.02;;;;;;;;;;5055846;28;20029;-80
2023/12/29 02:08:51;;;;;;;1.08;0.73;;;;;;;;;;5055248;28;20131;-80
2023/12/29 02:11:17;;;;;;;8.50;1.73;;;;;;;;;;5031909;28;20045;-80
2023/12/29 02:13:43;;;;;;;5.65;1.70;;;;;;;;;;5038351;28;20105;-80
2023/12/29 02:16:16;;;;;;;6.43;2.30;;;;;;;;;;5034229;28;20056;-80
2023/12/29 02:18:44;;;;;;;5.63;1.80;;;;;;;;;;5036879;28;20052;-81
2023/12/29 02:21:10;;;;;;;4.35;1.67;;;;;;;;;;5037018;28;20056;-80
2023/12/29 02:23:36;;;;;;;6.15;1.67;;;;;;;;;;5037168;28;20037;-80
2023/12/29 02:26:03;;;;;;;5.05;1.38;;;;;;;;;;5036016;28;20049;-81
2023/12/29 02:28:29;;;;;;;7.97;2.67;;;;;;;;;;5038590;28;20041;-80
2023/12/29 02:31:00;;;;;;;2.40;1.02;;;;;;;;;;5037311;28;20085;-81
2023/12/29 02:33:27;;;;;;;5.85;2.03;;;;;;;;;;5037201;28;20128;-81
2023/12/29 02:35:55;;;;;;;6.13;1.60;;;;;;;;;;5036418;28;20033;-81
2023/12/29 02:38:21;;;;;;;8.65;2.55;;;;;;;;;;5031146;28;20049;-81
2023/12/29 02:40:47;;;;;;;6.15;2.03;;;;;;;;;;5037296;28;20041;-81
2023/12/29 02:43:13;;;;;;;4.22;1.35;;;;;;;;;;5036208;28;20565;-80
2023/12/29 02:45:39;;;;;;;4.72;1.65;;;;;;;;;;5037860;28;20045;-80
2023/12/29 02:48:05;;;;;;;8.88;1.83;;;;;;;;;;5037002;28;20072;-80
2023/12/29 02:50:31;;;;;;;3.38;0.95;;;;;;;;;;5036686;28;20030;-80
2023/12/29 02:52:57;;;;;;;3.80;1.60;;;;;;;;;;5032258;28;20049;-80
2023/12/29 02:55:23;;;;;;;5.88;1.45;;;;;;;;;;5033991;28;20045;-80
2023/12/29 02:57:49;;;;;;;6.15;1.25;;;;;;;;;;5030741;28;20048;-83
2023/12/29 03:00:15;;;;;;;5.60;1.52;;;;;;;;;;5033519;28;20042;-81
2023/12/29 03:02:41;;;;;;;12.38;2.05;;;;;;;;;;5033024;28;20045;-82
2023/12/29 03:05:07;;;;;;;8.93;1.73;;;;;;;;;;5035372;28;20033;-82
2023/12/29 03:07:34;;;;;;;9.35;1.83;;;;;;;;;;5034403;28;20118;-81
2023/12/29 03:09:59;;;;;;;9.70;3.05;;;;;;;;;;5031857;28;20040;-81
2023/12/29 03:12:25;;;;;;;6.70;2.13;;;;;;;;;;5032646;28;20041;-82
2023/12/29 03:14:51;;;;;;;5.95;1.38;;;;;;;;;;5034146;28;20041;-81
2023/12/29 03:17:17;;;;;;;4.97;2.03;;;;;;;;;;5033834;28;20120;-81
2023/12/29 03:19:43;;;;;;;3.42;1.50;;;;;;;;;;5031935;28;20373;-81
2023/12/29 03:22:10;;;;;;;11.43;1.67;;;;;;;;;;5032731;28;20048;-81
2023/12/29 03:24:37;;;;;;;0.45;0.40;;;;;;;;;;5030962;28;20112;-81
2023/12/29 03:27:03;;;;;;;6.32;2.35;;;;;;;;;;5031069;28;20040;-81
2023/12/29 03:29:29;;;;;;;3.40;1.20;;;;;;;;;;5036006;28;20112;-81
2023/12/29 03:31:55;;;;;;;5.85;1.98;;;;;;;;;;5034648;28;20041;-81
2023/12/29 03:34:21;;;;;;;4.95;2.28;;;;;;;;;;5034676;28;20037;-82
2023/12/29 03:36:47;;;;;;;3.00;1.38;;;;;;;;;;5034805;28;20493;-81
2023/12/29 03:39:13;;;;;;;4.45;0.93;;;;;;;;;;5033472;28;20044;-81
2023/12/29 03:41:39;;;;;;;9.23;1.60;;;;;;;;;;5035131;28;20071;-81
2023/12/29 03:44:06;;;;;;;7.43;1.73;;;;;;;;;;5032624;28;20484;-81
2023/12/29 03:46:32;;;;;;;4.85;1.02;;;;;;;;;;5034725;28;20076;-81
2023/12/29 03:48:58;;;;;;;8.38;1.48;;;;;;;;;;5034468;28;20041;-82
2023/12/29 03:51:24;;;;;;;5.35;1.52;;;;;;;;;;5035649;28;20052;-81
2023/12/29 03:53:50;;;;;;;5.43;1.55;;;;;;;;;;5031494;28;20065;-81
2023/12/29 03:56:18;;;;;;;2.30;0.90;;;;;;;;;;5031770;28;20132;-81
2023/12/29 03:58:46;;;;;;;7.05;1.80;;;;;;;;;;5035272;28;20034;-81
2023/12/29 04:01:17;;;;;;;7.80;2.50;;;;;;;;;;5031995;28;20550;-82
2023/12/29 04:03:43;;;;;;;8.02;2.00;;;;;;;;;;5035124;28;20037;-83
2023/12/29 04:06:09;;;;;;;4.90;1.05;;;;;;;;;;5033495;28;20057;-82
2023/12/29 04:08:36;;;;;;;5.68;1.95;;;;;;;;;;5032345;28;20128;-82
2023/12/29 04:11:02;;;;;;;8.13;1.80;;;;;;;;;;5035783;28;20042;-81
2023/12/29 04:13:28;;;;;;;6.00;1.55;;;;;;;;;;5036142;28;20033;-82
2023/12/29 04:15:54;;;;;;;4.13;1.90;;;;;;;;;;5034361;28;20120;-82
2023/12/29 04:18:21;;;;;;;1.27;1.00;;;;;;;;;;5039409;28;20091;-81
2023/12/29 04:20:47;;;;;;;4.03;1.15;;;;;;;;;;5035615;28;20072;-81
2023/12/29 04:23:13;;;;;;;2.35;0.75;;;;;;;;;;5036555;28;20175;-84
2023/12/29 04:25:39;;;;;;;6.80;1.52;;;;;;;;;;5036759;28;20045;-82
2023/12/29 04:28:05;;;;;;;2.22;1.17;;;;;;;;;;5034039;28;20042;-82
2023/12/29 04:30:31;;;;;;;4.70;1.80;;;;;;;;;;5038084;28;20127;-81
2023/12/29 04:32:57;;;;;;;7.78;1.70;;;;;;;;;;5036288;28;20049;-81
2023/12/29 04:35:23;;;;;;;4.30;1.17;;;;;;;;;;5042162;28;20097;-81
2023/12/29 04:37:50;;;;;;;3.65;1.58;;;;;;;;;;5040914;28;20056;-82
2023/12/29 04:40:16;;;;;;;7.32;2.42;;;;;;;;;;5042529;28;20105;-82
2023/12/29 04:42:43;;;;;;;6.22;1.58;;;;;;;;;;5044496;28;20100;-81
2023/12/29 04:45:10;;;;;;;5.65;0.90;;;;;;;;;;5043257;28;20236;-82
2023/12/29 04:47:36;;;;;;;6.55;1.77;;;;;;;;;;5047048;28;20041;-81
2023/12/29 04:50:02;;;;;;;7.47;2.40;;;;;;;;;;5049561;28;20053;-81
2023/12/29 04:52:28;;;;;;;6.65;2.05;;;;;;;;;;5038311;28;20037;-81
2023/12/29 04:54:54;;;;;;;3.38;0.75;;;;;;;;;;5040331;28;20033;-81
2023/12/29 04:57:20;;;;;;;5.28;1.05;;;;;;;;;;5043680;28;20517;-81
2023/12/29 04:59:46;;;;;;;5.60;1.55;;;;;;;;;;5043511;28;20049;-83
2023/12/29 05:02:12;;;;;;;8.32;1.95;;;;;;;;;;5040427;28;20121;-81
2023/12/29 05:04:38;;;;;;;4.82;1.88;;;;;;;;;;5025112;28;20073;-81
2023/12/29 05:07:06;;;;;;;2.67;1.48;;;;;;;;;;5038593;28;20079;-81
2023/12/29 05:09:32;;;;;;;6.90;1.30;;;;;;;;;;5039482;28;20124;-81
2023/12/29 05:11:58;;;;;;;8.43;1.88;;;;;;;;;;5039332;28;20463;-82
2023/12/29 05:14:24;;;;;;;5.32;1.40;;;;;;;;;;5040281;28;20041;-81
2023/12/29 05:16:50;;;;;;;5.50;1.55;;;;;;;;;;5024579;28;20044;-81
2023/12/29 05:19:16;;;;;;;10.20;1.75;;;;;;;;;;5037872;28;20045;-81
2023/12/29 05:21:42;;;;;;;4.43;0.85;;;;;;;;;;5040130;28;20045;-81
2023/12/29 05:24:08;;;;;;;5.28;1.75;;;;;;;;;;5042215;28;20057;-81
2023/12/29 05:26:34;;;;;;;6.43;1.92;;;;;;;;;;5040109;28;20045;-81
2023/12/29 05:29:00;;;;;;;6.53;1.27;;;;;;;;;;5039928;28;20041;-82
2023/12/29 05:31:26;;;;;;;5.55;1.45;;;;;;;;;;5041544;28;20041;-82
2023/12/29 05:33:54;;;;;;;3.97;0.68;;;;;;;;;;5039097;28;20060;-81
2023/12/29 05:36:20;;;;;;;5.13;1.60;;;;;;;;;;5040869;28;20382;-81
2023/12/29 05:38:46;;;;;;;12.32;2.75;;;;;;;;;;5039725;28;20107;-81
2023/12/29 05:41:15;;;;;;;5.78;1.48;;;;;;;;;;5040072;28;20045;-82
2023/12/29 05:43:41;;;;;;;2.75;0.70;;;;;;;;;;5042347;28;20047;-81
2023/12/29 05:46:14;;;;;;;7.88;1.98;;;;;;;;;;5037653;28;20500;-81
2023/12/29 05:48:40;;;;;;;9.65;1.50;;;;;;;;;;5034844;28;20041;-81
2023/12/29 05:51:09;;;;;;;2.90;1.55;;;;;;;;;;5037118;28;20046;-81
2023/12/29 05:53:36;;;;;;;7.10;1.42;;;;;;;;;;5035860;28;20033;-81
2023/12/29 05:56:02;;;;;;;12.35;2.17;;;;;;;;;;5038517;28;20088;-81
2023/12/29 05:58:28;;;;;;;12.95;2.88;;;;;;;;;;5039964;28;20045;-81
2023/12/29 06:00:58;;;;;;;10.13;1.63;;;;;;;;;;5037242;28;20551;-81
2023/12/29 06:03:24;;;;;;;11.27;1.88;;;;;;;;;;5023777;28;20045;-81
2023/12/29 06:05:51;;;;;;;10.38;1.38;;;;;;;;;;5039513;28;20037;-81
2023/12/29 06:08:17;;;;;;;12.73;2.47;;;;;;;;;;5038203;28;20453;-81
2023/12/29 06:10:43;;;;;;;8.57;2.65;;;;;;;;;;5041207;28;20125;-81
2023/12/29 06:13:09;;;;;;;10.55;2.25;;;;;;;;;;5033951;28;20045;-81
2023/12/29 06:15:36;;;;;;;9.27;2.42;;;;;;;;;;5039206;28;20037;-81
2023/12/29 06:18:02;;;;;;;14.80;2.53;;;;;;;;;;5039168;28;20132;-80
2023/12/29 06:20:28;;;;;;;5.93;0.90;;;;;;;;;;5038595;28;20053;-81
2023/12/29 06:22:54;;;;;;;6.63;1.58;;;;;;;;;;5037259;28;20033;-81
2023/12/29 06:25:20;;;;;;;13.85;3.92;;;;;;;;;;5040041;28;20107;-81
2023/12/29 06:27:46;;;;;;;15.32;3.50;;;;;;;;;;5041713;28;20056;-81
2023/12/29 06:30:12;;;;;;;12.77;2.40;;;;;;;;;;5033463;28;20538;-81
2023/12/29 06:32:39;;;;;;;3.97;1.20;;;;;;;;;;5038837;28;20030;-82
2023/12/29 06:35:06;;;;;;;7.28;2.05;;;;;;;;;;5037306;28;20092;-82
2023/12/29 06:37:32;;;;;;;4.70;1.15;;;;;;;;;;5033496;28;20037;-81
2023/12/29 06:39:58;;;;;;;7.07;1.83;;;;;;;;;;5034452;28;20045;-81
2023/12/29 06:42:24;;;;;;;10.18;1.77;;;;;;;;;;5031828;28;20081;-82
2023/12/29 06:44:50;;;;;;;10.98;2.13;;;;;;;;;;5016942;28;20073;-83
2023/12/29 06:47:16;;;;;;;8.00;1.20;;;;;;;;;;5029044;28;20083;-82
2023/12/29 06:49:42;;;;;;;12.13;2.25;;;;;;;;;;5035647;28;20038;-82
2023/12/29 06:52:08;;;;;;;19.27;3.88;;;;;;;;;;5033242;28;20044;-80
2023/12/29 06:54:34;;;;;;;14.35;2.55;;;;;;;;;;5032545;28;20042;-82
2023/12/29 06:57:00;;;;;;;8.85;1.35;;;;;;;;;;5031790;28;20111;-83
2023/12/29 06:59:26;;;;;;;9.88;2.40;;;;;;;;;;5034746;28;20037;-81
2023/12/29 07:01:53;;;;;;;7.35;1.52;;;;;;;;;;5032122;28;20037;-81
2023/12/29 07:04:19;;;;;;;12.18;2.05;;;;;;;;;;5032469;28;20951;-82
2023/12/29 07:06:45;;;;;;;16.05;2.55;;;;;;;;;;5031620;28;20570;-82
2023/12/29 07:09:11;;;;;;;13.10;2.13;;;;;;;;;;5035912;28;20041;-82
2023/12/29 07:11:37;;;;;;;15.50;1.88;;;;;;;;;;5035196;28;20113;-81
2023/12/29 07:14:03;;;;;;;6.18;1.52;;;;;;;;;;5029529;28;20496;-82
2023/12/29 07:16:29;;;;;;;14.02;1.98;;;;;;;;;;5036196;28;20029;-81
2023/12/29 07:18:55;;;;;;;3.55;1.20;;;;;;;;;;5032578;28;20044;-82
2023/12/29 07:21:21;;;;;;;10.43;1.70;;;;;;;;;;5034311;28;20136;-82
2023/12/29 07:23:47;;;;;;;13.43;2.72;;;;;;;;;;5036506;28;20041;-82
2023/12/29 07:26:13;;;;;;;8.98;2.28;;;;;;;;;;5017621;28;20053;-82
2023/12/29 07:28:39;;;;;;;11.27;2.97;;;;;;;;;;5034471;28;20097;-81
2023/12/29 07:31:05;;;;;;;11.20;2.03;;;;;;;;;;5032236;28;20444;-81
2023/12/29 07:33:32;;;;;;;17.23;3.72;;;;;;;;;;5038547;28;20049;-82
2023/12/29 07:35:58;;;;;;;6.47;1.92;;;;;;;;;;5037431;28;20124;-82
2023/12/29 07:38:24;;;;;;;10.48;1.90;;;;;;;;;;5024218;28;20037;-82
2023/12/29 07:40:50;;;;;;;11.23;1.90;;;;;;;;;;5039151;28;20048;-81
2023/12/29 07:43:16;;;;;;;7.88;1.50;;;;;;;;;;5031086;28;20481;-81
2023/12/29 07:45:45;;;;;;;9.02;1.63;;;;;;;;;;5031900;28;20045;-81
2023/12/29 07:48:11;;;;;;;9.50;2.55;;;;;;;;;;5029447;28;20049;-81
2023/12/29 07:50:37;;;;;;;15.70;2.60;;;;;;;;;;5030505;28;20508;-81
2023/12/29 07:53:05;;;;;;;5.72;1.27;;;;;;;;;;5031111;28;20069;-82
2023/12/29 07:55:31;;;;;;;4.35;1.83;;;;;;;;;;5031483;28;20058;-81
2023/12/29 07:57:57;;;;;;;7.53;1.30;;;;;;;;;;5028780;28;20052;-81
2023/12/29 08:00:24;;;;;;;5.80;1.67;;;;;;;;;;5030131;28;20045;-81
2023/12/29 08:02:51;;;;;;;3.60;1.48;;;;;;;;;;5032429;28;20037;-81
2023/12/29 08:05:17;;;;;;;3.30;1.20;;;;;;;;;;5032196;28;20050;-81
2023/12/29 08:07:43;;;;;;;6.55;2.10;;;;;;;;;;5034346;28;20385;-81
2023/12/29 08:10:09;;;;;;;9.90;2.55;;;;;;;;;;5035782;28;20091;-81
2023/12/29 08:12:35;;;;;;;8.63;2.47;;;;;;;;;;5043491;28;20045;-85
2023/12/29 08:15:02;;;;;;;14.32;3.05;;;;;;;;;;5029728;28;20052;-83
2023/12/29 08:17:29;;;;;;;7.80;2.20;;;;;;;;;;5028788;28;20476;-82
2023/12/29 08:19:59;;;;;;;13.82;2.03;;;;;;;;;;5026566;28;20052;-82
2023/12/29 08:22:32;;;;;;;12.93;3.13;;;;;;;;;;5028408;28;20136;-82
2023/12/29 08:24:58;;;;;;;7.35;1.67;;;;;;;;;;5029567;28;20050;-83
2023/12/29 08:27:28;;;;;;;1.73;1.30;;;;;;;;;;5027752;28;20041;-83
2023/12/29 08:29:54;;;;;;;4.40;2.20;;;;;;;;;;5013731;28;20046;-83
2023/12/29 08:32:20;;;;;;;3.22;0.75;;;;;;;;;;5030742;28;20036;-83
2023/12/29 08:34:47;;;;;;;5.82;1.70;;;;;;;;;;5029830;28;20041;-83
2023/12/29 08:37:19;;;;;;;6.78;1.33;;;;;;;;;;5025748;28;20462;-84
2023/12/29 08:39:46;;;;;;;10.18;2.22;;;;;;;;;;5028249;28;20510;-83
2023/12/29 08:42:12;;;;;;;7.03;2.15;;;;;;;;;;5001140;28;20523;-82
2023/12/29 08:44:38;;;;;;;1.80;0.70;;;;;;;;;;5028521;28;20034;-80
2023/12/29 08:47:07;;;;;;;7.45;1.67;;;;;;;;;;5030288;28;20050;-83
2023/12/29 08:49:34;;;;;;;6.30;1.85;;;;;;;;;;5029518;28;20042;-80
2023/12/29 08:52:00;;;;;;;3.95;1.15;;;;;;;;;;5022563;28;20092;-84
2023/12/29 08:54:27;;;;;;;10.85;2.78;;;;;;;;;;5025888;28;20045;-81
2023/12/29 08:56:53;;;;;;;7.80;2.00;;;;;;;;;;5030901;28;20136;-81
2023/12/29 08:59:19;;;;;;;4.10;1.60;;;;;;;;;;5031765;28;20041;-80
2023/12/29 09:01:45;;;;;;;4.07;1.30;;;;;;;;;;5030865;28;20412;-81
2023/12/29 09:04:11;;;;;;;6.60;2.03;;;;;;;;;;5031913;28;20036;-80
2023/12/29 09:06:37;;;;;;;6.50;1.17;;;;;;;;;;5029798;28;20549;-81
2023/12/29 09:09:03;;;;;;;8.60;2.13;;;;;;;;;;5027871;28;20128;-81
2023/12/29 09:11:29;;;;;;;8.32;2.00;;;;;;;;;;5023656;28;20045;-84
2023/12/29 09:13:56;;;;;;;8.55;2.30;;;;;;;;;;5041242;28;20523;-83
2023/12/29 09:16:22;;;;;;;8.05;1.77;;;;;;;;;;5033402;28;20049;-84
2023/12/29 09:18:49;;;;;;;5.72;1.42;;;;;;;;;;5035596;28;20037;-83
2023/12/29 09:21:40;;;;;;;9.38;2.03;;;;;;;;;;5030920;28;20045;-85
2023/12/29 09:24:10;;;;;;;8.77;1.77;;;;;;;;;;5019896;28;20044;-85
2023/12/29 09:26:36;;;;;;;2.00;1.42;;;;;;;;;;5038854;28;20496;-83
2023/12/29 09:29:02;;;;;;;7.50;1.95;;;;;;;;;;5043151;28;20127;-84
2023/12/29 09:31:28;;;;;;;3.58;0.75;;;;;;;;;;5040808;28;20389;-83
2023/12/29 09:34:12;;;;;;;7.28;1.55;;;;;;;;;;5048835;28;20098;-84
2023/12/29 09:36:47;;;;;;;4.07;0.90;;;;;;;;;;5035571;28;20044;-83
2023/12/29 09:39:13;;;;;;;2.40;1.80;;;;;;;;;;5039547;28;20045;-85
2023/12/29 09:41:43;;;;;;;6.65;1.95;;;;;;;;;;5039529;28;20111;-83
2023/12/29 09:44:13;;;;;;;2.80;1.25;;;;;;;;;;5031771;28;20076;-82
2023/12/29 09:46:41;;;;;;;7.05;1.48;;;;;;;;;;5034542;28;20044;-84
2023/12/29 09:49:11;;;;;;;5.00;1.70;;;;;;;;;;5036554;28;20036;-84
2023/12/29 09:51:51;;;;;;;5.97;1.60;;;;;;;;;;5033333;28;20072;-84
2023/12/29 09:54:37;;;;;;;5.18;1.35;;;;;;;;;;5035936;28;20045;-83
2023/12/29 09:57:42;;;;;;;1.50;1.35;;;;;;;;;;5034149;28;20045;-83
2023/12/29 10:00:11;;;;;;;6.50;0.70;;;;;;;;;;5030043;28;20049;-85
2023/12/29 10:02:37;;;;;;;4.18;1.27;;;;;;;;;;5035735;28;20037;-84
2023/12/29 10:05:04;;;;;;;6.97;2.65;;;;;;;;;;5052404;22;20032;-84
2023/12/29 10:07:32;;;;;;;9.25;2.70;;;;;;;;;;5030126;28;20050;-84
2023/12/29 10:09:59;;;;;;;4.30;2.08;;;;;;;;;;5029094;28;20045;-86
2023/12/29 10:12:25;;;;;;;2.75;1.10;;;;;;;;;;5048544;28;20503;-86
2023/12/29 10:15:09;;;;;;;4.53;1.80;;;;;;;;;;5033429;28;20045;-85
2023/12/29 10:17:51;;;;;;;3.58;1.58;;;;;;;;;;5037730;28;20046;-85
2023/12/29 10:20:18;;;;;;;2.60;0.80;;;;;;;;;;5041655;28;20048;-85
2023/12/29 10:23:02;;;;;;;9.88;2.67;;;;;;;;;;5027577;28;20038;-85
2023/12/29 10:25:30;;;;;;;4.47;1.40;;;;;;;;;;5038733;28;20056;-86
2023/12/29 10:27:56;;;;;;;6.93;1.92;;;;;;;;;;5031075;28;20049;-86
2023/12/29 10:30:22;;;;;;;6.93;2.00;;;;;;;;;;5025891;28;20045;-85
2023/12/29 10:32:53;;;;;;;6.40;1.85;;;;;;;;;;5027975;28;20436;-84
2023/12/29 10:35:19;;;;;;;7.55;2.10;;;;;;;;;;5036206;28;20057;-85
2023/12/29 10:37:45;;;;;;;4.55;1.77;;;;;;;;;;5029700;28;20041;-85
2023/12/29 10:40:21;;;;;;;3.38;1.15;;;;;;;;;;5039405;28;20056;-84
2023/12/29 10:42:54;;;;;;;1.25;0.60;;;;;;;;;;5038443;28;20438;-85
2023/12/29 10:45:20;;;;;;;0.63;0.38;;;;;;;;;;5032828;28;20091;-85
2023/12/29 10:47:46;;;;;;;4.18;0.98;;;;;;;;;;5019449;28;20034;-84
2023/12/29 10:50:12;;;;;;;1.60;0.30;;;;;;;;;;5035079;28;20064;-84
2023/12/29 10:52:40;;;;;;;1.15;0.52;;;;;;;;;;5029968;28;20045;-88
2023/12/29 10:55:11;;;;;;;0.52;0.17;;;;;;;;;;5015737;28;20063;-85
2023/12/29 10:57:38;;;;;;;3.53;1.00;;;;;;;;;;5031516;28;20072;-85
2023/12/29 11:00:06;;;;;;;3.20;0.93;;;;;;;;;;5029287;28;20734;-84
2023/12/29 11:02:33;;;;;;;1.63;0.38;;;;;;;;;;5030692;28;20068;-84
2023/12/29 11:05:17;;;;;;;3.65;1.65;;;;;;;;;;5026801;28;20042;-84
2023/12/29 11:07:43;;;;;;;4.45;1.38;;;;;;;;;;5033046;28;20049;-88
2023/12/29 11:10:09;;;;;;;4.10;1.25;;;;;;;;;;5024944;28;20046;-85
2023/12/29 11:12:36;;;;;;;0.68;0.65;;;;;;;;;;5022788;28;20425;-84
2023/12/29 11:15:04;;;;;;;4.80;0.55;;;;;;;;;;5026991;28;20041;-85
2023/12/29 11:17:34;;;;;;;6.10;0.95;;;;;;;;;;5029058;28;20582;-85
2023/12/29 11:20:03;;;;;;;9.70;1.42;;;;;;;;;;5026698;28;20048;-86
2023/12/29 11:22:30;;;;;;;1.48;0.47;;;;;;;;;;5027161;28;20041;-85
2023/12/29 11:24:59;;;;;;;5.90;1.58;;;;;;;;;;5012034;28;20049;-85
2023/12/29 11:27:26;;;;;;;5.57;1.63;;;;;;;;;;5031832;28;20046;-85
2023/12/29 11:29:53;;;;;;;2.92;0.80;;;;;;;;;;5026182;28;20069;-85
2023/12/29 11:32:22;;;;;;;5.07;1.00;;;;;;;;;;5008000;28;20034;-86
2023/12/29 11:34:52;;;;;;;1.15;0.88;;;;;;;;;;5015826;28;20409;-85
2023/12/29 11:37:45;;;;;;;7.00;1.58;;;;;;;;;;5020136;28;20079;-86
2023/12/29 11:40:11;;;;;;;8.60;1.90;;;;;;;;;;5033582;28;20048;-85
2023/12/29 11:42:40;;;;;;;4.05;0.85;;;;;;;;;;5016694;28;20038;-85
2023/12/29 11:45:28;;;;;;;4.45;1.45;;;;;;;;;;5024654;28;20029;-86
2023/12/29 11:47:56;;;;;;;7.40;1.42;;;;;;;;;;5014258;28;20038;-85
2023/12/29 11:50:36;;;;;;;5.50;1.65;;;;;;;;;;5026776;28;20063;-84
2023/12/29 11:53:02;;;;;;;6.78;2.13;;;;;;;;;;5026834;28;20092;-84
2023/12/29 11:55:35;;;;;;;4.65;1.50;;;;;;;;;;5026298;28;20084;-86
2023/12/29 11:58:05;;;;;;;6.47;1.38;;;;;;;;;;5023473;28;20042;-85
2023/12/29 12:00:46;;;;;;;5.63;1.25;;;;;;;;;;5011723;28;20116;-85
2023/12/29 12:03:23;;;;;;;3.45;1.15;;;;;;;;;;5030618;28;20056;-84
2023/12/29 12:05:50;;;;;;;5.13;1.58;;;;;;;;;;5006589;28;20046;-84
2023/12/29 12:08:34;;;;;;;4.75;1.27;;;;;;;;;;5029554;28;20038;-84
2023/12/29 12:11:20;;;;;;;8.88;1.90;;;;;;;;;;5021037;28;20049;-85
2023/12/29 12:13:47;;;;;;;8.07;1.42;;;;;;;;;;5017881;28;20053;-85
2023/12/29 12:16:37;;;;;;;4.05;1.13;;;;;;;;;;5014915;28;20033;-84
2023/12/29 12:19:04;;;;;;;8.45;1.55;;;;;;;;;;5026194;28;20045;-87
2023/12/29 12:21:56;;;;;;;6.82;1.30;;;;;;;;;;5010221;28;20520;-85
2023/12/29 12:24:22;;;;;;;11.18;2.00;;;;;;;;;;5013365;28;20041;-88
2023/12/29 12:26:49;;;;;;;7.18;0.98;;;;;;;;;;5030869;28;20045;-85
2023/12/29 12:29:15;;;;;;;4.03;1.33;;;;;;;;;;5023918;28;20401;-86
2023/12/29 12:31:57;;;;;;;10.20;1.52;;;;;;;;;;5026998;28;20095;-84
2023/12/29 12:34:23;;;;;;;7.82;1.48;;;;;;;;;;5020589;28;20045;-88
2023/12/29 12:36:50;;;;;;;4.88;1.92;;;;;;;;;;5025639;28;20056;-87
2023/12/29 12:39:16;;;;;;;4.82;1.25;;;;;;;;;;5026004;28;20041;-86
2023/12/29 12:41:42;;;;;;;3.55;1.23;;;;;;;;;;5006882;28;20517;-86
2023/12/29 12:44:12;;;;;;;6.20;1.42;;;;;;;;;;5028955;28;20054;-87
2023/12/29 12:46:57;;;;;;;5.53;0.90;;;;;;;;;;5022691;28;20048;-86
2023/12/29 12:49:23;;;;;;;4.47;0.98;;;;;;;;;;5024783;28;20033;-87
2023/12/29 12:51:50;;;;;;;3.88;1.40;;;;;;;;;;5020003;28;20041;-86
2023/12/29 12:54:23;;;;;;;3.67;0.70;;;;;;;;;;5025735;28;20050;-86
2023/12/29 12:56:49;;;;;;;5.78;1.17;;;;;;;;;;5027651;28;20038;-86
2023/12/29 12:59:19;;;;;;;4.75;0.95;;;;;;;;;;5028153;28;20389;-86
2023/12/29 13:01:45;;;;;;;3.83;1.10;;;;;;;;;;5026275;28;20497;-85
2023/12/29 13:04:11;;;;;;;3.88;1.08;;;;;;;;;;5025690;28;20048;-87
2023/12/29 13:06:41;;;;;;;7.38;1.63;;;;;;;;;;5013392;28;20052;-86
2023/12/29 13:09:12;;;;;;;5.75;0.88;;;;;;;;;;5049495;28;20050;-86
2023/12/29 13:11:40;;;;;;;6.50;1.02;;;;;;;;;;5028780;28;20042;-86
2023/12/29 13:14:30;;;;;;;7.32;1.15;;;;;;;;;;5029375;28;20087;-86
2023/12/29 13:16:56;;;;;;;5.63;1.05;;;;;;;;;;5010711;28;20048;-86
2023/12/29 13:19:30;;;;;;;4.20;0.77;;;;;;;;;;5023253;28;20096;-87
2023/12/29 13:21:56;;;;;;;2.25;0.80;;;;;;;;;;5027970;28;20513;-85
2023/12/29 13:24:31;;;;;;;3.65;0.63;;;;;;;;;;5013142;28;20424;-86
2023/12/29 13:27:29;;;;;;;5.82;0.88;;;;;;;;;;5018958;28;20090;-85
2023/12/29 13:29:55;;;;;;;5.28;1.65;;;;;;;;;;5023163;28;20038;-86
2023/12/29 13:32:28;;;;;;;0.80;0.35;;;;;;;;;;5010942;28;20125;-86
2023/12/29 13:35:07;;;;;;;8.25;1.10;;;;;;;;;;5011767;28;20042;-86
2023/12/29 13:37:47;;;;;;;6.32;1.23;;;;;;;;;;5029657;28;20041;-86
2023/12/29 13:40:32;;;;;;;5.72;1.25;;;;;;;;;;5009081;28;20098;-85
2023/12/29 13:43:01;;;;;;;4.95;1.38;;;;;;;;;;5023905;28;20049;-87
2023/12/29 13:45:28;;;;;;;6.60;1.23;;;;;;;;;;5008898;28;20126;-86
2023/12/29 13:47:59;;;;;;;3.63;0.80;;;;;;;;;;5024691;28;20050;-86
2023/12/29 13:50:31;;;;;;;6.80;1.70;;;;;;;;;;5024181;28;20077;-85
2023/12/29 13:53:44;;;;;;;4.20;0.77;;;;;;;;;;5027162;28;20033;-83
2023/12/29 13:56:21;;;;;;;3.25;1.05;;;;;;;;;;5006670;28;20128;-82
2023/12/29 13:59:07;;;;;;;2.60;0.85;;;;;;;;;;5028154;28;20040;-83
2023/12/29 14:01:37;;;;;;;6.53;1.50;;;;;;;;;;5031623;28;20132;-85
2023/12/29 14:04:04;;;;;;;3.53;0.75;;;;;;;;;;5008098;28;20115;-86
2023/12/29 14:06:38;;;;;;;3.13;0.80;;;;;;;;;;5009169;28;20053;-85
2023/12/29 14:09:17;;;;;;;5.22;1.25;;;;;;;;;;4991239;28;20041;-85
2023/12/29 14:11:47;;;;;;;7.75;1.27;;;;;;;;;;5027665;28;20049;-85
2023/12/29 14:14:16;;;;;;;2.03;1.00;;;;;;;;;;5040295;28;20028;-84
2023/12/29 14:16:42;;;;;;;3.78;0.52;;;;;;;;;;5018543;28;20045;-86
2023/12/29 14:19:17;;;;;;;1.80;0.52;;;;;;;;;;5031482;28;20045;-85
2023/12/29 14:21:55;;;;;;;5.40;0.65;;;;;;;;;;5048781;28;20168;-85
2023/12/29 14:24:21;;;;;;;10.43;1.98;;;;;;;;;;5036792;28;20090;-86
2023/12/29 14:26:54;;;;;;;5.78;1.15;;;;;;;;;;5036913;28;20056;-85
2023/12/29 14:29:29;;;;;;;4.50;0.93;;;;;;;;;;5017979;28;20040;-84
2023/12/29 14:32:08;;;;;;;2.05;0.15;;;;;;;;;;5049791;28;20051;-86
2023/12/29 14:34:34;;;;;;;4.32;0.75;;;;;;;;;;5031812;28;20055;-85
2023/12/29 14:37:03;;;;;;;7.15;1.40;;;;;;;;;;5018079;28;20040;-84
2023/12/29 14:39:29;;;;;;;0.82;0.73;;;;;;;;;;5019416;28;20508;-85
2023/12/29 14:41:55;;;;;;;7.28;1.10;;;;;;;;;;5016970;28;20040;-83
2023/12/29 14:44:21;;;;;;;1.65;0.65;;;;;;;;;;5032379;28;20048;-85
2023/12/29 14:46:48;;;;;;;5.07;1.20;;;;;;;;;;5019509;28;20037;-84
2023/12/29 14:49:14;;;;;;;1.52;0.68;;;;;;;;;;5015555;28;20040;-84